Time,TemperatureF,DewpointF,PressureIn,WindDirection,WindDirectionDegrees,WindSpeedMPH,WindSpeedGustMPH,Humidity,HourlyPrecipIn,Conditions,Clouds,dailyrainin,SoftwareType,DateUTC
2013-04-18 00:03:00,61.0,54.0,30.22,SE,127,1.0,1.0,79,0.00,,,0.00,,2013-04-18 04:03:00,
2013-04-18 00:13:00,61.0,54.0,30.22,SE,127,1.0,1.0,79,0.00,,,0.00,,2013-04-18 04:13:00,
2013-04-18 00:23:00,61.0,55.0,30.22,ESE,122,0.0,0.0,80,0.00,,,0.00,,2013-04-18 04:23:00,
2013-04-18 00:33:00,61.0,55.0,30.23,ESE,111,2.0,2.0,80,0.00,,,0.00,,2013-04-18 04:33:00,
2013-04-18 00:43:00,61.0,55.0,30.22,ESE,109,1.0,1.0,81,0.00,,,0.00,,2013-04-18 04:43:00,
2013-04-18 00:53:00,61.0,55.0,30.22,ESE,109,1.0,1.0,81,0.00,,,0.00,,2013-04-18 04:53:00,
2013-04-18 01:02:00,61.0,55.0,30.22,ESE,115,0.0,0.0,81,0.00,,,0.00,,2013-04-18 05:02:00,
2013-04-18 01:12:00,60.0,54.0,30.22,ESE,115,1.0,1.0,81,0.00,,,0.00,,2013-04-18 05:12:00,
2013-04-18 01:22:00,60.0,54.0,30.22,ESE,115,1.0,1.0,81,0.00,,,0.00,,2013-04-18 05:22:00,
2013-04-18 01:33:00,60.0,54.0,30.22,ESE,115,0.0,0.0,82,0.00,,,0.00,,2013-04-18 05:33:00,
2013-04-18 01:42:00,60.0,54.0,30.22,ESE,115,2.0,2.0,82,0.00,,,0.00,,2013-04-18 05:42:00,
2013-04-18 01:52:00,60.0,54.0,30.22,ESE,115,2.0,2.0,82,0.00,,,0.00,,2013-04-18 05:52:00,
2013-04-18 02:02:00,60.0,55.0,30.22,ESE,104,5.0,5.0,83,0.00,,,0.00,,2013-04-18 06:02:00,
2013-04-18 02:12:00,60.0,55.0,30.22,ESE,104,5.0,5.0,83,0.00,,,0.00,,2013-04-18 06:12:00,
2013-04-18 02:22:00,60.0,54.0,30.21,ENE,60,3.0,3.0,82,0.00,,,0.00,,2013-04-18 06:22:00,
2013-04-18 02:32:00,59.0,54.0,30.22,ENE,64,5.0,5.0,83,0.00,,,0.00,,2013-04-18 06:32:00,
2013-04-18 02:42:00,59.0,54.0,30.21,ENE,74,3.0,3.0,84,0.00,,,0.00,,2013-04-18 06:42:00,
2013-04-18 02:52:00,59.0,54.0,30.21,ENE,74,3.0,3.0,84,0.00,,,0.00,,2013-04-18 06:52:00,
2013-04-18 03:02:00,59.0,54.0,30.20,East,91,2.0,2.0,85,0.00,,,0.00,,2013-04-18 07:02:00,
2013-04-18 03:12:00,59.0,54.0,30.20,ENE,69,1.0,1.0,85,0.00,,,0.00,,2013-04-18 07:12:00,
2013-04-18 03:22:00,59.0,54.0,30.20,ENE,69,1.0,1.0,85,0.00,,,0.00,,2013-04-18 07:22:00,
2013-04-18 03:32:00,59.0,55.0,30.19,ESE,106,0.0,0.0,87,0.00,,,0.00,,2013-04-18 07:32:00,
2013-04-18 03:42:00,59.0,55.0,30.19,ESE,122,1.0,1.0,87,0.00,,,0.00,,2013-04-18 07:42:00,
2013-04-18 03:53:00,59.0,55.0,30.19,ESE,122,1.0,1.0,87,0.00,,,0.00,,2013-04-18 07:53:00,
2013-04-18 04:02:00,59.0,55.0,30.19,East,89,3.0,3.0,87,0.00,,,0.00,,2013-04-18 08:02:00,
2013-04-18 04:12:00,59.0,55.0,30.20,ESE,107,2.0,2.0,87,0.00,,,0.00,,2013-04-18 08:12:00,
2013-04-18 04:22:00,59.0,55.0,30.20,ESE,107,2.0,2.0,87,0.00,,,0.00,,2013-04-18 08:22:00,
2013-04-18 04:32:00,59.0,55.0,30.20,ESE,118,0.0,0.0,88,0.00,,,0.00,,2013-04-18 08:32:00,
2013-04-18 04:42:00,59.0,55.0,30.19,ESE,118,1.0,1.0,88,0.00,,,0.00,,2013-04-18 08:42:00,
2013-04-18 04:52:00,59.0,55.0,30.19,ESE,118,1.0,1.0,88,0.00,,,0.00,,2013-04-18 08:52:00,
2013-04-18 05:02:00,59.0,55.0,30.19,ESE,103,4.0,4.0,88,0.00,,,0.00,,2013-04-18 09:02:00,
2013-04-18 05:12:00,59.0,56.0,30.19,ESE,113,0.0,0.0,89,0.00,,,0.00,,2013-04-18 09:12:00,
2013-04-18 05:22:00,59.0,56.0,30.19,ESE,113,0.0,0.0,89,0.00,,,0.00,,2013-04-18 09:22:00,
2013-04-18 05:33:00,59.0,56.0,30.18,ESE,104,0.0,0.0,89,0.00,,,0.00,,2013-04-18 09:33:00,
2013-04-18 05:43:00,59.0,56.0,30.18,ESE,111,1.0,1.0,90,0.00,,,0.00,,2013-04-18 09:43:00,
2013-04-18 05:53:00,59.0,56.0,30.18,ESE,111,1.0,1.0,90,0.00,,,0.00,,2013-04-18 09:53:00,
2013-04-18 06:03:00,59.0,56.0,30.17,ESE,107,1.0,1.0,90,0.00,,,0.00,,2013-04-18 10:03:00,
2013-04-18 06:12:00,59.0,56.0,30.17,ESE,107,1.0,1.0,90,0.00,,,0.00,,2013-04-18 10:12:00,
2013-04-18 06:23:00,58.0,55.0,30.18,ESE,108,2.0,2.0,91,0.00,,,0.00,,2013-04-18 10:23:00,
2013-04-18 06:32:00,59.0,56.0,30.19,East,82,4.0,4.0,91,0.00,,,0.00,,2013-04-18 10:32:00,
2013-04-18 06:42:00,59.0,56.0,30.19,East,82,4.0,4.0,91,0.00,,,0.00,,2013-04-18 10:42:00,
2013-04-18 06:53:00,59.0,57.0,30.20,NNW,328,5.0,5.0,92,0.00,,,0.00,,2013-04-18 10:53:00,
2013-04-18 07:02:00,59.0,57.0,30.19,East,87,0.0,0.0,92,0.00,,,0.00,,2013-04-18 11:02:00,
2013-04-18 07:12:00,59.0,57.0,30.20,East,82,5.0,5.0,92,0.00,,,0.00,,2013-04-18 11:12:00,
2013-04-18 07:22:00,59.0,57.0,30.20,East,82,5.0,5.0,92,0.00,,,0.00,,2013-04-18 11:22:00,
2013-04-18 07:32:00,59.0,57.0,30.21,ENE,69,5.0,5.0,92,0.00,,,0.00,,2013-04-18 11:32:00,
2013-04-18 07:42:00,59.0,57.0,30.21,ENE,69,5.0,5.0,92,0.00,,,0.00,,2013-04-18 11:42:00,
2013-04-18 07:52:00,59.0,57.0,30.21,ESE,113,6.0,6.0,92,0.00,,,0.00,,2013-04-18 11:52:00,
2013-04-18 08:02:00,59.0,57.0,30.21,ESE,114,2.0,2.0,93,0.02,,,0.02,,2013-04-18 12:02:00,
2013-04-18 08:12:00,59.0,57.0,30.21,ESE,114,2.0,2.0,93,0.02,,,0.02,,2013-04-18 12:12:00,
2013-04-18 08:22:00,58.0,56.0,30.21,ESE,111,2.0,2.0,94,0.04,,,0.04,,2013-04-18 12:22:00,
2013-04-18 08:32:00,58.0,56.0,30.22,ESE,121,0.0,0.0,94,0.04,,,0.04,,2013-04-18 12:32:00,
2013-04-18 08:42:00,58.0,56.0,30.22,ESE,121,0.0,0.0,94,0.04,,,0.04,,2013-04-18 12:42:00,
2013-04-18 08:52:00,58.0,57.0,30.22,ESE,116,2.0,2.0,95,0.04,,,0.04,,2013-04-18 12:52:00,
2013-04-18 09:03:00,59.0,58.0,30.22,ESE,114,2.0,2.0,95,0.04,,,0.04,,2013-04-18 13:03:00,
2013-04-18 09:12:00,59.0,58.0,30.22,ESE,114,2.0,2.0,95,0.04,,,0.04,,2013-04-18 13:12:00,
2013-04-18 09:22:00,59.0,58.0,30.23,ESE,113,0.0,0.0,95,0.02,,,0.04,,2013-04-18 13:22:00,
2013-04-18 09:32:00,59.0,58.0,30.22,ESE,109,4.0,4.0,95,0.02,,,0.06,,2013-04-18 13:32:00,
2013-04-18 09:42:00,59.0,58.0,30.22,ESE,113,2.0,2.0,95,0.02,,,0.06,,2013-04-18 13:42:00,
2013-04-18 09:53:00,59.0,58.0,30.22,ESE,113,2.0,2.0,95,0.02,,,0.06,,2013-04-18 13:53:00,
2013-04-18 10:02:00,60.0,59.0,30.23,East,98,2.0,2.0,95,0.02,,,0.06,,2013-04-18 14:02:00,
2013-04-18 10:12:00,60.0,59.0,30.23,East,94,5.0,5.0,95,0.02,,,0.06,,2013-04-18 14:12:00,
2013-04-18 10:22:00,60.0,59.0,30.23,East,94,5.0,5.0,95,0.02,,,0.06,,2013-04-18 14:22:00,
2013-04-18 10:32:00,60.0,59.0,30.23,East,83,6.0,6.0,95,0.02,,,0.06,,2013-04-18 14:32:00,
2013-04-18 10:43:00,60.0,59.0,30.23,East,83,6.0,6.0,95,0.02,,,0.06,,2013-04-18 14:43:00,
2013-04-18 10:52:00,60.0,59.0,30.23,East,101,4.0,4.0,95,0.00,,,0.06,,2013-04-18 14:52:00,
2013-04-18 11:03:00,60.0,59.0,30.22,ESE,107,2.0,2.0,95,0.01,,,0.07,,2013-04-18 15:03:00,
2013-04-18 11:12:00,60.0,59.0,30.22,ESE,107,2.0,2.0,95,0.01,,,0.07,,2013-04-18 15:12:00,
2013-04-18 11:22:00,60.0,59.0,30.22,ESE,107,7.0,7.0,96,0.01,,,0.07,,2013-04-18 15:22:00,
2013-04-18 11:33:00,61.0,60.0,30.22,ESE,109,4.0,4.0,96,0.01,,,0.07,,2013-04-18 15:33:00,
2013-04-18 11:43:00,61.0,60.0,30.22,ESE,102,5.0,5.0,96,0.01,,,0.07,,2013-04-18 15:43:00,
2013-04-18 11:53:00,61.0,60.0,30.22,ESE,102,5.0,5.0,96,0.01,,,0.07,,2013-04-18 15:53:00,
2013-04-18 12:03:00,61.0,60.0,30.22,WNW,282,2.0,2.0,95,0.01,,,0.07,,2013-04-18 16:03:00,
2013-04-18 12:13:00,61.0,60.0,30.20,ESE,104,5.0,5.0,95,0.00,,,0.07,,2013-04-18 16:13:00,
2013-04-18 12:23:00,61.0,60.0,30.20,ESE,104,5.0,5.0,95,0.00,,,0.07,,2013-04-18 16:23:00,
2013-04-18 12:33:00,61.0,60.0,30.19,ESE,109,2.0,2.0,95,0.00,,,0.07,,2013-04-18 16:33:00,
2013-04-18 12:43:00,61.0,60.0,30.18,East,96,6.0,6.0,95,0.00,,,0.07,,2013-04-18 16:43:00,
2013-04-18 12:53:00,61.0,60.0,30.18,East,96,6.0,6.0,95,0.00,,,0.07,,2013-04-18 16:53:00,
2013-04-18 13:03:00,62.0,61.0,30.18,ESE,115,4.0,4.0,95,0.00,,,0.07,,2013-04-18 17:03:00,
2013-04-18 13:12:00,64.0,63.0,30.17,SSE,151,5.0,5.0,95,0.00,,,0.07,,2013-04-18 17:12:00,
2013-04-18 13:22:00,64.0,63.0,30.17,SSE,151,5.0,5.0,95,0.00,,,0.07,,2013-04-18 17:22:00,
2013-04-18 13:33:00,65.0,63.0,30.17,ESE,106,4.0,4.0,92,0.00,,,0.07,,2013-04-18 17:33:00,
2013-04-18 13:42:00,66.0,63.0,30.16,ENE,76,5.0,5.0,90,0.00,,,0.07,,2013-04-18 17:42:00,
2013-04-18 13:52:00,66.0,63.0,30.16,ENE,76,5.0,5.0,90,0.00,,,0.07,,2013-04-18 17:52:00,
2013-04-18 14:03:00,67.0,64.0,30.16,East,100,5.0,5.0,89,0.00,,,0.07,,2013-04-18 18:03:00,
2013-04-18 14:13:00,68.0,65.0,30.16,East,90,6.0,6.0,90,0.00,,,0.07,,2013-04-18 18:13:00,
2013-04-18 14:23:00,68.0,65.0,30.16,East,90,6.0,6.0,90,0.00,,,0.07,,2013-04-18 18:23:00,
2013-04-18 14:32:00,70.0,66.0,30.15,ESE,104,1.0,1.0,87,0.00,,,0.07,,2013-04-18 18:32:00,
2013-04-18 14:42:00,72.0,67.0,30.14,West,279,4.0,4.0,84,0.00,,,0.07,,2013-04-18 18:42:00,
2013-04-18 14:53:00,72.0,67.0,30.14,West,279,4.0,4.0,84,0.00,,,0.07,,2013-04-18 18:53:00,
2013-04-18 15:02:00,72.0,65.0,30.14,SW,215,2.0,2.0,80,0.00,,,0.07,,2013-04-18 19:02:00,
2013-04-18 15:12:00,72.0,65.0,30.14,SW,215,2.0,2.0,80,0.00,,,0.07,,2013-04-18 19:12:00,
2013-04-18 15:22:00,72.0,65.0,30.14,West,267,2.0,2.0,80,0.00,,,0.07,,2013-04-18 19:22:00,
2013-04-18 15:32:00,73.0,64.0,30.12,WNW,296,4.0,4.0,73,0.00,,,0.07,,2013-04-18 19:32:00,
2013-04-18 15:42:00,73.0,64.0,30.12,WNW,296,4.0,4.0,73,0.00,,,0.07,,2013-04-18 19:42:00,
2013-04-18 15:53:00,75.0,65.0,30.11,NNW,336,5.0,5.0,70,0.00,,,0.07,,2013-04-18 19:53:00,
2013-04-18 16:02:00,77.0,64.0,30.11,North,355,2.0,2.0,64,0.00,,,0.07,,2013-04-18 20:02:00,
2013-04-18 16:12:00,77.0,64.0,30.11,North,355,2.0,2.0,64,0.00,,,0.07,,2013-04-18 20:12:00,
2013-04-18 16:22:00,78.0,63.0,30.10,WSW,237,6.0,6.0,61,0.00,,,0.07,,2013-04-18 20:22:00,
2013-04-18 16:32:00,77.0,63.0,30.09,West,264,6.0,6.0,63,0.00,,,0.07,,2013-04-18 20:32:00,
2013-04-18 16:42:00,77.0,64.0,30.09,West,281,7.0,7.0,64,0.00,,,0.07,,2013-04-18 20:42:00,
2013-04-18 16:52:00,77.0,64.0,30.09,West,281,7.0,7.0,64,0.00,,,0.07,,2013-04-18 20:52:00,
2013-04-18 17:02:00,75.0,63.0,30.08,ENE,73,7.0,7.0,66,0.00,,,0.07,,2013-04-18 21:02:00,
2013-04-18 17:12:00,75.0,63.0,30.07,South,187,3.0,3.0,66,0.00,,,0.07,,2013-04-18 21:12:00,
2013-04-18 17:22:00,75.0,63.0,30.07,South,187,3.0,3.0,66,0.00,,,0.07,,2013-04-18 21:22:00,
2013-04-18 17:33:00,75.0,63.0,30.07,West,261,4.0,4.0,67,0.00,,,0.07,,2013-04-18 21:33:00,
2013-04-18 17:43:00,75.0,63.0,30.07,NNW,333,6.0,6.0,67,0.00,,,0.07,,2013-04-18 21:43:00,
2013-04-18 17:53:00,75.0,63.0,30.07,NNW,333,6.0,6.0,67,0.00,,,0.07,,2013-04-18 21:53:00,
2013-04-18 18:02:00,75.0,63.0,30.08,NW,313,8.0,8.0,67,0.00,,,0.07,,2013-04-18 22:02:00,
2013-04-18 18:13:00,74.0,62.0,30.08,West,268,4.0,4.0,67,0.00,,,0.07,,2013-04-18 22:13:00,
2013-04-18 18:23:00,74.0,62.0,30.08,West,268,4.0,4.0,67,0.00,,,0.07,,2013-04-18 22:23:00,
2013-04-18 18:32:00,73.0,61.0,30.07,NE,53,5.0,5.0,67,0.00,,,0.07,,2013-04-18 22:32:00,
2013-04-18 18:42:00,73.0,62.0,30.06,West,278,5.0,5.0,68,0.00,,,0.07,,2013-04-18 22:42:00,
2013-04-18 18:52:00,73.0,62.0,30.06,West,278,5.0,5.0,68,0.00,,,0.07,,2013-04-18 22:52:00,
2013-04-18 19:04:00,72.0,61.0,30.06,WSW,254,6.0,6.0,69,0.00,,,0.07,,2013-04-18 23:04:00,
2013-04-18 19:12:00,71.0,60.0,30.06,West,260,7.0,7.0,69,0.00,,,0.07,,2013-04-18 23:12:00,
2013-04-18 19:21:00,71.0,60.0,30.06,West,260,7.0,7.0,69,0.00,,,0.07,,2013-04-18 23:21:00,
2013-04-18 19:32:00,70.0,60.0,30.06,North,351,4.0,4.0,70,0.00,,,0.07,,2013-04-18 23:32:00,
2013-04-18 19:42:00,70.0,60.0,30.06,West,261,5.0,5.0,71,0.00,,,0.07,,2013-04-18 23:42:00,
2013-04-18 19:52:00,70.0,60.0,30.06,West,261,5.0,5.0,71,0.00,,,0.07,,2013-04-18 23:52:00,
2013-04-18 20:01:00,69.0,60.0,30.06,ENE,64,3.0,3.0,72,0.00,,,0.07,,2013-04-19 00:01:00,
2013-04-18 20:12:00,69.0,60.0,30.06,ENE,64,3.0,3.0,72,0.00,,,0.07,,2013-04-19 00:12:00,
2013-04-18 20:22:00,68.0,59.0,30.06,ENE,67,6.0,6.0,74,0.00,,,0.07,,2013-04-19 00:22:00,
2013-04-18 20:32:00,68.0,60.0,30.06,WSW,257,10.0,10.0,75,0.00,,,0.07,,2013-04-19 00:32:00,
2013-04-18 20:42:00,68.0,60.0,30.06,WSW,257,10.0,10.0,75,0.00,,,0.07,,2013-04-19 00:42:00,
2013-04-18 20:52:00,68.0,60.0,30.06,WNW,288,8.0,8.0,76,0.00,,,0.07,,2013-04-19 00:52:00,
2013-04-18 21:01:00,67.0,60.0,30.06,West,273,8.0,8.0,77,0.00,,,0.07,,2013-04-19 01:01:00,
2013-04-18 21:11:00,67.0,60.0,30.06,West,273,8.0,8.0,77,0.00,,,0.07,,2013-04-19 01:11:00,
2013-04-18 21:21:00,67.0,60.0,30.06,NW,304,6.0,6.0,78,0.00,,,0.07,,2013-04-19 01:21:00,
2013-04-18 21:32:00,67.0,60.0,30.06,NW,311,4.0,4.0,79,0.00,,,0.07,,2013-04-19 01:32:00,
2013-04-18 21:42:00,67.0,60.0,30.06,NW,311,4.0,4.0,79,0.00,,,0.07,,2013-04-19 01:42:00,
2013-04-18 21:52:00,66.0,60.0,30.06,NNW,332,6.0,6.0,81,0.00,,,0.07,,2013-04-19 01:52:00,
2013-04-18 22:02:00,66.0,60.0,30.06,NW,324,6.0,6.0,82,0.00,,,0.07,,2013-04-19 02:02:00,
2013-04-18 22:11:00,66.0,60.0,30.06,NW,324,6.0,6.0,82,0.00,,,0.07,,2013-04-19 02:11:00,
2013-04-18 22:21:00,66.0,61.0,30.05,WNW,283,6.0,6.0,83,0.00,,,0.07,,2013-04-19 02:21:00,
2013-04-18 22:32:00,66.0,61.0,30.06,NW,324,5.0,5.0,83,0.00,,,0.07,,2013-04-19 02:32:00,
2013-04-18 22:42:00,66.0,61.0,30.06,NW,324,5.0,5.0,83,0.00,,,0.07,,2013-04-19 02:42:00,
2013-04-18 22:52:00,65.0,60.0,30.04,NW,312,4.0,4.0,84,0.00,,,0.07,,2013-04-19 02:52:00,
2013-04-18 23:01:00,65.0,60.0,30.04,NW,312,4.0,4.0,84,0.00,,,0.07,,2013-04-19 03:01:00,
2013-04-18 23:12:00,65.0,60.0,30.04,NW,312,4.0,4.0,84,0.00,,,0.07,,2013-04-19 03:12:00,
2013-04-18 23:22:00,65.0,60.0,30.03,SW,236,7.0,7.0,85,0.00,,,0.07,,2013-04-19 03:22:00,
2013-04-18 23:33:00,65.0,60.0,30.03,SW,236,7.0,7.0,85,0.00,,,0.07,,2013-04-19 03:33:00,
2013-04-18 23:43:00,65.0,60.0,30.03,SW,236,7.0,7.0,85,0.00,,,0.07,,2013-04-19 03:43:00,
2013-04-18 23:53:00,65.0,61.0,30.02,NNW,338,1.0,1.0,87,0.00,,,0.07,,2013-04-19 03:53:00,